Terminal Aerodrome Forecast
Issued by NWS

Home | Current Version | Previous Version | Text Only | Print | Product List | Glossary On
Versions: 1 2 3 4 5 6 7 8 9 10 11 12 13 14 15 16 17
000
FTPA31 PHFO 240528
TAFHNY
TAF
PHNY 240528Z 2406/2506 04013KT P6SM SKC
     FM240800 04008KT P6SM SKC
     FM242200 04014G20KT P6SM SCT025
     FM250500 04008KT P6SM FEW025=

USA.gov is the U.S. government's official web portal to all federal, state and local government web resources and services.